Time;durP1;ratioP1;P1;durP2;ratioP2;P2;SDS_P1;SDS_P2;PMS_P1;PMS_P2;Temp;Humidity;BMP_temperature;BMP_pressure;BME280_temperature;BME280_humidity;BME280_pressure;Samples;Min_cycle;Max_cycle;Signal;HPM_P1;HPM_P2
2022/06/08 00:01:00;;;;;;;4.47;2.30;;;;;;;;;;5071277;28;20126;-58
2022/06/08 00:03:29;;;;;;;2.53;2.20;;;;;;;;;;5069068;28;20115;-58
2022/06/08 00:05:54;;;;;;;7.32;3.17;;;;;;;;;;5060763;28;20388;-58
2022/06/08 00:08:20;;;;;;;3.97;2.22;;;;;;;;;;5063664;28;20041;-58
2022/06/08 00:10:45;;;;;;;6.07;2.53;;;;;;;;;;5072702;28;20546;-59
2022/06/08 00:13:12;;;;;;;4.47;2.67;;;;;;;;;;5076974;28;20035;-58
2022/06/08 00:15:38;;;;;;;4.07;2.70;;;;;;;;;;5071097;28;20416;-59
2022/06/08 00:18:05;;;;;;;5.55;2.53;;;;;;;;;;5070623;28;20035;-58
2022/06/08 00:20:31;;;;;;;5.22;2.30;;;;;;;;;;5074162;28;20102;-58
2022/06/08 00:22:56;;;;;;;5.93;2.80;;;;;;;;;;5073938;28;20131;-59
2022/06/08 00:25:22;;;;;;;3.28;2.60;;;;;;;;;;5071076;28;20032;-57
2022/06/08 00:27:47;;;;;;;4.05;2.30;;;;;;;;;;5070124;28;20135;-58
2022/06/08 00:30:13;;;;;;;4.93;2.38;;;;;;;;;;5072249;28;20032;-59
2022/06/08 00:32:39;;;;;;;9.48;2.70;;;;;;;;;;5071093;28;20028;-58
2022/06/08 00:35:06;;;;;;;8.88;2.33;;;;;;;;;;5072748;28;20119;-57
2022/06/08 00:37:31;;;;;;;3.60;2.60;;;;;;;;;;5068303;28;20392;-58
2022/06/08 00:39:57;;;;;;;4.38;2.45;;;;;;;;;;5070591;28;20013;-58
2022/06/08 00:42:23;;;;;;;8.00;2.97;;;;;;;;;;5071108;28;20042;-58
2022/06/08 00:45:01;;;;;;;3.40;2.33;;;;;;;;;;5069687;28;20029;-60
2022/06/08 00:47:33;;;;;;;8.95;2.95;;;;;;;;;;5063112;28;20447;-60
2022/06/08 00:50:03;;;;;;;8.82;3.03;;;;;;;;;;5065603;28;20515;-59
2022/06/08 00:52:30;;;;;;;3.90;2.22;;;;;;;;;;5066978;28;20059;-59
2022/06/08 00:55:02;;;;;;;3.75;2.40;;;;;;;;;;5064353;28;20043;-59
2022/06/08 00:57:33;;;;;;;7.07;2.97;;;;;;;;;;5067438;28;20037;-59
2022/06/08 01:00:27;;;;;;;8.40;2.60;;;;;;;;;;5063812;28;20024;-60
2022/06/08 01:02:53;;;;;;;5.68;3.38;;;;;;;;;;5058382;28;20047;-59
2022/06/08 01:05:44;;;;;;;7.13;2.65;;;;;;;;;;5068363;28;20028;-59
2022/06/08 01:08:39;;;;;;;6.13;2.40;;;;;;;;;;5063833;28;20119;-59
2022/06/08 01:11:10;;;;;;;5.35;2.90;;;;;;;;;;5067649;28;20033;-60
2022/06/08 01:13:38;;;;;;;6.03;2.80;;;;;;;;;;5073473;28;20021;-59
2022/06/08 01:16:08;;;;;;;5.25;2.75;;;;;;;;;;5074666;28;20086;-59
2022/06/08 01:18:34;;;;;;;4.90;2.55;;;;;;;;;;5072560;28;20036;-59
2022/06/08 01:21:21;;;;;;;5.95;2.50;;;;;;;;;;5071054;28;20056;-59
2022/06/08 01:24:00;;;;;;;3.20;2.65;;;;;;;;;;5071768;28;20024;-59
2022/06/08 01:26:51;;;;;;;5.03;3.17;;;;;;;;;;5071134;28;20085;-58
2022/06/08 01:29:46;;;;;;;7.13;2.72;;;;;;;;;;5067248;28;20625;-58
2022/06/08 01:32:28;;;;;;;5.72;2.80;;;;;;;;;;5061686;28;20090;-58
2022/06/08 01:35:02;;;;;;;3.83;2.25;;;;;;;;;;5063604;28;20028;-58
2022/06/08 01:37:54;;;;;;;5.72;2.80;;;;;;;;;;5069894;28;20460;-60
2022/06/08 01:40:28;;;;;;;5.47;3.10;;;;;;;;;;5070492;28;20025;-58
2022/06/08 01:43:12;;;;;;;7.55;2.60;;;;;;;;;;5071867;28;20032;-59
2022/06/08 01:46:02;;;;;;;5.32;2.30;;;;;;;;;;5064766;28;20059;-59
2022/06/08 01:48:33;;;;;;;3.25;2.13;;;;;;;;;;5065109;28;20031;-59
2022/06/08 01:51:17;;;;;;;4.60;2.40;;;;;;;;;;5063101;28;20083;-59
2022/06/08 01:53:55;;;;;;;5.30;2.03;;;;;;;;;;5063148;28;20038;-58
2022/06/08 01:56:57;;;;;;;7.68;2.83;;;;;;;;;;5063449;28;20035;-59
2022/06/08 01:59:50;;;;;;;6.07;2.40;;;;;;;;;;5041831;28;20503;-59
2022/06/08 02:02:48;;;;;;;6.00;2.20;;;;;;;;;;5060780;28;20484;-58
2022/06/08 02:05:23;;;;;;;5.30;2.20;;;;;;;;;;5055727;28;20063;-58
2022/06/08 02:08:00;;;;;;;3.90;2.50;;;;;;;;;;5061751;28;20396;-59
2022/06/08 02:10:32;;;;;;;5.55;2.33;;;;;;;;;;5069265;28;20027;-58
2022/06/08 02:13:19;;;;;;;3.90;2.15;;;;;;;;;;5069571;28;20077;-59
2022/06/08 02:15:48;;;;;;;6.55;2.30;;;;;;;;;;5070674;28;20066;-59
2022/06/08 02:18:27;;;;;;;6.35;2.20;;;;;;;;;;5071636;28;20475;-60
2022/06/08 02:21:06;;;;;;;;;;;;;;;;;;5068144;28;20051;-59
2022/06/08 02:23:50;;;;;;;5.53;2.25;;;;;;;;;;5070187;28;20007;-58
2022/06/08 02:26:20;;;;;;;4.50;2.20;;;;;;;;;;5071301;28;20127;-59
2022/06/08 02:28:52;;;;;;;7.10;2.58;;;;;;;;;;5071107;28;20149;-58
2022/06/08 02:31:22;;;;;;;5.20;2.45;;;;;;;;;;5070268;28;20028;-58
2022/06/08 02:36:54;;;;;;;5.13;2.30;;;;;;;;;;5066566;28;20031;-58
2022/06/08 02:39:44;;;;;;;11.10;2.60;;;;;;;;;;5066877;28;20036;-59
2022/06/08 02:42:16;;;;;;;5.00;1.92;;;;;;;;;;5062103;28;20437;-58
2022/06/08 02:44:45;;;;;;;8.80;2.30;;;;;;;;;;5064355;28;20487;-58
2022/06/08 02:47:19;;;;;;;6.55;2.10;;;;;;;;;;5065236;28;20029;-58
2022/06/08 02:49:45;;;;;;;4.88;2.17;;;;;;;;;;5063277;28;20048;-59
2022/06/08 02:52:25;;;;;;;5.68;2.28;;;;;;;;;;5062959;28;20332;-59
2022/06/08 02:54:52;;;;;;;4.65;2.33;;;;;;;;;;5060593;28;20060;-60
2022/06/08 02:57:41;;;;;;;3.83;2.20;;;;;;;;;;5063738;28;20033;-58
2022/06/08 03:00:27;;;;;;;6.47;2.30;;;;;;;;;;5062413;28;20039;-58
2022/06/08 03:03:01;;;;;;;2.60;2.10;;;;;;;;;;5048734;28;20519;-59
2022/06/08 03:05:33;;;;;;;5.00;2.40;;;;;;;;;;5067333;28;20059;-60
2022/06/08 03:08:08;;;;;;;5.28;2.25;;;;;;;;;;5068752;28;20116;-59
2022/06/08 03:10:36;;;;;;;6.53;2.47;;;;;;;;;;5072652;28;20025;-59
2022/06/08 03:13:07;;;;;;;5.60;2.17;;;;;;;;;;5074916;28;20103;-59
2022/06/08 03:15:33;;;;;;;9.15;2.10;;;;;;;;;;5074381;28;20032;-58
2022/06/08 03:17:59;;;;;;;4.10;2.10;;;;;;;;;;5076924;28;20134;-58
2022/06/08 03:20:26;;;;;;;4.38;1.95;;;;;;;;;;5075000;28;20036;-58
2022/06/08 03:22:51;;;;;;;2.50;1.88;;;;;;;;;;5073482;28;20051;-59
2022/06/08 03:25:17;;;;;;;3.85;2.15;;;;;;;;;;5072553;28;20602;-58
2022/06/08 03:27:45;;;;;;;8.60;2.40;;;;;;;;;;5074685;28;20031;-59
2022/06/08 03:30:12;;;;;;;7.28;2.15;;;;;;;;;;5073362;28;20097;-58
2022/06/08 03:32:37;;;;;;;6.45;2.50;;;;;;;;;;5069677;28;20025;-58
2022/06/08 03:35:03;;;;;;;6.82;2.15;;;;;;;;;;5073178;28;20029;-59
2022/06/08 03:37:29;;;;;;;10.35;2.72;;;;;;;;;;5071778;28;20104;-58
2022/06/08 03:39:54;;;;;;;7.22;2.00;;;;;;;;;;5075104;28;20135;-59
2022/06/08 03:42:20;;;;;;;7.90;3.60;;;;;;;;;;5065809;28;20048;-59
2022/06/08 03:44:45;;;;;;;9.27;3.60;;;;;;;;;;5066402;28;20024;-58
2022/06/08 03:47:16;;;;;;;8.60;2.70;;;;;;;;;;5071493;28;20142;-58
2022/06/08 03:49:42;;;;;;;6.55;3.15;;;;;;;;;;5068037;28;20029;-59
2022/06/08 03:52:13;;;;;;;4.55;2.72;;;;;;;;;;5062660;28;20027;-59
2022/06/08 03:54:42;;;;;;;5.38;3.38;;;;;;;;;;5065038;28;20033;-58
2022/06/08 03:57:10;;;;;;;6.68;2.10;;;;;;;;;;5066964;28;20025;-58
2022/06/08 03:59:40;;;;;;;5.68;2.60;;;;;;;;;;5064715;28;20417;-59
2022/06/08 04:02:06;;;;;;;5.75;2.60;;;;;;;;;;5062442;28;20039;-59
2022/06/08 04:04:33;;;;;;;5.32;2.33;;;;;;;;;;5071569;28;20028;-58
2022/06/08 04:06:58;;;;;;;4.22;2.60;;;;;;;;;;5067136;28;20035;-59
2022/06/08 04:09:24;;;;;;;6.20;2.55;;;;;;;;;;5077700;28;20032;-58
2022/06/08 04:11:50;;;;;;;3.90;2.15;;;;;;;;;;5066055;28;20093;-59
2022/06/08 04:14:15;;;;;;;4.15;2.20;;;;;;;;;;5073186;28;20032;-59
2022/06/08 04:16:41;;;;;;;10.38;3.00;;;;;;;;;;5071879;28;20021;-58
2022/06/08 04:19:06;;;;;;;4.90;2.60;;;;;;;;;;5073244;28;20032;-58
2022/06/08 04:21:32;;;;;;;3.78;2.20;;;;;;;;;;5070162;28;20027;-58
2022/06/08 04:24:00;;;;;;;6.28;3.25;;;;;;;;;;5072521;28;20390;-58
2022/06/08 04:26:26;;;;;;;6.22;2.30;;;;;;;;;;5072085;28;20399;-57
2022/06/08 04:28:52;;;;;;;5.35;2.20;;;;;;;;;;5074048;28;20056;-58
2022/06/08 04:31:18;;;;;;;5.30;2.30;;;;;;;;;;5069993;28;20520;-59
2022/06/08 04:33:44;;;;;;;6.25;2.30;;;;;;;;;;5069913;28;20123;-58
2022/06/08 04:36:10;;;;;;;6.68;2.65;;;;;;;;;;5069334;28;20115;-58
2022/06/08 04:38:36;;;;;;;4.47;3.00;;;;;;;;;;5071722;28;20020;-59
2022/06/08 04:41:03;;;;;;;6.03;2.58;;;;;;;;;;5064502;28;20267;-58
2022/06/08 04:43:29;;;;;;;6.53;2.65;;;;;;;;;;5063406;28;20033;-58
2022/06/08 04:45:54;;;;;;;4.63;2.70;;;;;;;;;;5065951;28;20074;-58
2022/06/08 04:48:21;;;;;;;7.47;3.22;;;;;;;;;;5066326;28;20550;-58
2022/06/08 04:50:48;;;;;;;10.55;2.75;;;;;;;;;;5070510;28;20028;-58
2022/06/08 04:53:14;;;;;;;6.90;2.83;;;;;;;;;;5066709;28;20024;-58
2022/06/08 04:55:40;;;;;;;5.85;2.88;;;;;;;;;;5064208;28;20033;-58
2022/06/08 04:58:05;;;;;;;6.75;2.42;;;;;;;;;;5071684;28;20036;-59
2022/06/08 05:00:32;;;;;;;7.43;2.70;;;;;;;;;;5060157;28;20028;-58
2022/06/08 05:02:57;;;;;;;6.72;2.45;;;;;;;;;;5061977;28;20104;-57
2022/06/08 05:05:46;;;;;;;4.68;2.33;;;;;;;;;;5063044;28;20449;-58
2022/06/08 05:08:11;;;;;;;5.05;2.83;;;;;;;;;;5074218;28;20149;-59
2022/06/08 05:10:38;;;;;;;4.93;2.50;;;;;;;;;;5071388;28;20070;-58
2022/06/08 05:13:05;;;;;;;3.88;2.60;;;;;;;;;;5072762;28;20047;-59
2022/06/08 05:15:34;;;;;;;3.00;2.42;;;;;;;;;;5072345;28;20028;-58
2022/06/08 05:17:59;;;;;;;5.85;2.20;;;;;;;;;;5072004;28;20064;-59
2022/06/08 05:20:25;;;;;;;5.80;2.40;;;;;;;;;;5069497;28;20060;-58
2022/06/08 05:22:52;;;;;;;6.53;2.75;;;;;;;;;;5070129;28;20032;-59
2022/06/08 05:25:23;;;;;;;5.70;2.53;;;;;;;;;;5064563;28;20032;-59
2022/06/08 05:27:48;;;;;;;4.30;2.83;;;;;;;;;;5071627;28;20133;-59
2022/06/08 05:30:17;;;;;;;4.05;1.77;;;;;;;;;;5068987;28;20072;-59
2022/06/08 05:32:42;;;;;;;4.60;3.00;;;;;;;;;;5065352;28;20028;-59
2022/06/08 05:35:08;;;;;;;3.90;2.47;;;;;;;;;;5068758;28;20024;-59
2022/06/08 05:37:34;;;;;;;4.30;2.38;;;;;;;;;;5066319;28;20037;-59
2022/06/08 05:40:00;;;;;;;4.10;2.22;;;;;;;;;;5065919;28;20048;-60
2022/06/08 05:42:25;;;;;;;3.85;2.38;;;;;;;;;;5061028;28;20283;-59
2022/06/08 05:44:51;;;;;;;3.88;2.17;;;;;;;;;;5064355;28;20034;-59
2022/06/08 05:47:16;;;;;;;6.35;2.25;;;;;;;;;;5067085;28;20060;-59
2022/06/08 05:49:43;;;;;;;4.20;2.05;;;;;;;;;;5068892;28;20024;-59
2022/06/08 05:52:09;;;;;;;9.60;2.90;;;;;;;;;;5061226;28;20044;-60
2022/06/08 05:54:35;;;;;;;6.10;2.55;;;;;;;;;;5061416;28;20033;-59
2022/06/08 05:57:02;;;;;;;5.78;2.30;;;;;;;;;;5063785;28;20035;-59
2022/06/08 05:59:28;;;;;;;6.10;2.03;;;;;;;;;;5064910;28;20035;-60
2022/06/08 06:01:53;;;;;;;10.95;4.57;;;;;;;;;;5060460;28;20037;-59
2022/06/08 06:04:19;;;;;;;14.00;5.13;;;;;;;;;;5061571;28;20029;-59
2022/06/08 06:06:46;;;;;;;9.95;5.10;;;;;;;;;;5071771;28;20032;-59
2022/06/08 06:09:14;;;;;;;6.10;2.83;;;;;;;;;;5074460;28;20464;-59
2022/06/08 06:11:40;;;;;;;9.23;3.45;;;;;;;;;;5068864;28;20027;-59
2022/06/08 06:14:07;;;;;;;4.95;2.30;;;;;;;;;;5071449;28;20028;-59
2022/06/08 06:16:33;;;;;;;4.15;2.00;;;;;;;;;;5070330;28;20035;-59
2022/06/08 06:18:59;;;;;;;5.53;2.33;;;;;;;;;;5070898;28;20033;-59
2022/06/08 06:21:25;;;;;;;4.95;2.00;;;;;;;;;;5069958;28;20035;-59
2022/06/08 06:23:52;;;;;;;6.07;2.00;;;;;;;;;;5069659;28;20388;-60
2022/06/08 06:26:17;;;;;;;5.57;2.50;;;;;;;;;;5068270;28;20035;-59
2022/06/08 06:28:43;;;;;;;8.13;4.45;;;;;;;;;;5070369;28;20036;-60
2022/06/08 06:31:14;;;;;;;9.85;4.40;;;;;;;;;;5069087;28;20043;-59
2022/06/08 06:33:40;;;;;;;6.78;2.80;;;;;;;;;;5067369;28;20503;-59
2022/06/08 06:36:05;;;;;;;6.40;2.83;;;;;;;;;;5069252;28;20044;-60
2022/06/08 06:38:31;;;;;;;3.45;2.20;;;;;;;;;;5067236;28;20027;-59
2022/06/08 06:40:57;;;;;;;4.55;2.60;;;;;;;;;;5062316;28;20029;-59
2022/06/08 06:43:22;;;;;;;6.28;3.10;;;;;;;;;;5064338;28;20115;-59
2022/06/08 06:45:48;;;;;;;4.78;2.97;;;;;;;;;;5065706;28;20388;-59
2022/06/08 06:48:13;;;;;;;5.22;3.05;;;;;;;;;;5065779;28;20411;-59
2022/06/08 06:50:38;;;;;;;5.90;2.72;;;;;;;;;;5063281;28;20116;-59
2022/06/08 06:53:04;;;;;;;5.40;2.75;;;;;;;;;;5067472;28;20033;-59
2022/06/08 06:55:32;;;;;;;5.05;2.92;;;;;;;;;;5063616;28;20344;-59
2022/06/08 06:57:57;;;;;;;4.65;2.92;;;;;;;;;;5063729;28;20455;-59
2022/06/08 07:00:24;;;;;;;6.50;2.90;;;;;;;;;;5066544;28;20035;-59
2022/06/08 07:02:50;;;;;;;7.13;4.13;;;;;;;;;;5059999;28;20033;-59
2022/06/08 07:05:19;;;;;;;6.55;3.13;;;;;;;;;;5062978;28;20059;-59
2022/06/08 07:07:44;;;;;;;7.95;3.83;;;;;;;;;;5071297;28;20153;-59
2022/06/08 07:10:10;;;;;;;6.55;2.97;;;;;;;;;;5074229;28;20483;-59
2022/06/08 07:12:36;;;;;;;6.85;2.72;;;;;;;;;;5069812;28;20086;-59
2022/06/08 07:15:01;;;;;;;6.22;3.17;;;;;;;;;;5068220;28;20051;-59
2022/06/08 07:17:27;;;;;;;5.88;3.00;;;;;;;;;;5070164;28;20398;-58
2022/06/08 07:19:53;;;;;;;8.10;2.63;;;;;;;;;;5072004;28;20120;-59
2022/06/08 07:22:18;;;;;;;5.50;3.00;;;;;;;;;;5068247;28;20035;-59
2022/06/08 07:24:44;;;;;;;4.18;2.60;;;;;;;;;;5066215;28;20369;-59
2022/06/08 07:27:09;;;;;;;7.03;2.60;;;;;;;;;;5068970;28;20470;-59
2022/06/08 07:29:34;;;;;;;5.70;3.00;;;;;;;;;;5063650;28;20039;-59
2022/06/08 07:32:00;;;;;;;6.13;2.85;;;;;;;;;;5065958;28;20028;-60
2022/06/08 07:34:27;;;;;;;9.60;2.65;;;;;;;;;;5065077;28;20017;-59
2022/06/08 07:36:52;;;;;;;7.90;2.42;;;;;;;;;;5068340;28;20119;-59
2022/06/08 07:39:19;;;;;;;7.00;3.10;;;;;;;;;;5063387;28;20104;-59
2022/06/08 07:41:46;;;;;;;6.38;2.40;;;;;;;;;;5063311;28;20035;-59
2022/06/08 07:44:12;;;;;;;8.43;2.33;;;;;;;;;;5059660;28;20162;-59
2022/06/08 07:46:38;;;;;;;4.47;2.65;;;;;;;;;;5063277;28;20257;-60
2022/06/08 07:51:53;;;;;;;5.90;2.33;;;;;;;;;;5069427;28;20046;-59
2022/06/08 07:54:23;;;;;;;4.32;2.25;;;;;;;;;;5060775;28;20071;-60
2022/06/08 07:56:51;;;;;;;6.68;2.30;;;;;;;;;;5069069;28;20028;-59
2022/06/08 07:59:17;;;;;;;6.85;3.08;;;;;;;;;;5066160;28;20495;-59
2022/06/08 08:01:42;;;;;;;5.93;2.28;;;;;;;;;;5069217;28;20028;-59
2022/06/08 08:04:08;;;;;;;7.05;2.13;;;;;;;;;;5068682;28;20029;-59
2022/06/08 08:06:33;;;;;;;4.40;2.28;;;;;;;;;;5074154;28;20033;-60
2022/06/08 08:09:00;;;;;;;7.15;2.33;;;;;;;;;;5074706;28;20024;-59
2022/06/08 08:11:26;;;;;;;4.30;1.83;;;;;;;;;;5073644;28;20027;-59
2022/06/08 08:13:51;;;;;;;6.63;2.35;;;;;;;;;;5073240;28;20374;-59
2022/06/08 08:16:17;;;;;;;7.13;2.08;;;;;;;;;;5071934;28;20064;-60
2022/06/08 08:18:43;;;;;;;3.92;1.60;;;;;;;;;;5072747;28;20048;-59
2022/06/08 08:21:08;;;;;;;4.60;1.70;;;;;;;;;;5073298;28;20084;-60
2022/06/08 08:23:33;;;;;;;6.90;2.15;;;;;;;;;;5069222;28;20043;-59
2022/06/08 08:25:59;;;;;;;3.72;1.67;;;;;;;;;;5072420;28;20032;-60
2022/06/08 08:28:24;;;;;;;4.85;1.85;;;;;;;;;;5070804;28;20020;-59
2022/06/08 08:30:50;;;;;;;4.72;1.70;;;;;;;;;;5068533;28;20043;-60
2022/06/08 08:33:15;;;;;;;5.20;1.75;;;;;;;;;;5067589;28;20029;-60
2022/06/08 08:35:41;;;;;;;5.85;1.60;;;;;;;;;;5063036;28;20383;-59
2022/06/08 08:38:06;;;;;;;6.45;1.77;;;;;;;;;;5066316;28;20105;-60
2022/06/08 08:40:48;;;;;;;5.97;1.70;;;;;;;;;;5070688;28;20028;-59
2022/06/08 08:43:17;;;;;;;4.30;1.77;;;;;;;;;;5061942;28;20051;-60
2022/06/08 08:45:52;;;;;;;6.22;1.75;;;;;;;;;;5067542;28;20067;-60
2022/06/08 08:48:27;;;;;;;4.07;1.55;;;;;;;;;;5066988;28;20040;-60
2022/06/08 08:51:04;;;;;;;5.28;1.70;;;;;;;;;;5061237;28;20471;-60
2022/06/08 08:53:44;;;;;;;3.78;1.80;;;;;;;;;;5064484;28;20053;-60
2022/06/08 08:56:14;;;;;;;;;;;;;;;;;;5067067;28;20082;-60
2022/06/08 08:58:45;;;;;;;2.47;1.60;;;;;;;;;;5071942;28;19908;-60
2022/06/08 09:01:19;;;;;;;4.53;1.50;;;;;;;;;;5067154;28;20481;-60
2022/06/08 09:03:55;;;;;;;5.88;1.80;;;;;;;;;;5072595;28;20033;-60
2022/06/08 09:06:24;;;;;;;4.18;1.70;;;;;;;;;;5070635;28;20394;-61
2022/06/08 09:08:53;;;;;;;6.40;1.80;;;;;;;;;;5070923;28;20028;-61
2022/06/08 09:11:22;;;;;;;5.55;1.83;;;;;;;;;;5070131;28;20031;-62
2022/06/08 09:13:54;;;;;;;5.30;2.00;;;;;;;;;;5071926;28;20024;-61
2022/06/08 09:16:42;;;;;;;4.07;1.58;;;;;;;;;;5070788;28;20487;-60
2022/06/08 09:19:35;;;;;;;3.63;1.60;;;;;;;;;;5071218;28;20031;-61
2022/06/08 09:22:03;;;;;;;2.83;1.52;;;;;;;;;;5068233;28;20032;-60
2022/06/08 09:24:34;;;;;;;3.20;1.60;;;;;;;;;;5066628;28;20057;-60
2022/06/08 09:27:52;;;;;;;7.15;1.45;;;;;;;;;;5070042;28;20039;-61
2022/06/08 09:30:27;;;;;;;5.13;1.65;;;;;;;;;;5051650;28;20048;-60
2022/06/08 09:32:57;;;;;;;5.32;1.60;;;;;;;;;;5067382;28;20396;-60
2022/06/08 09:35:26;;;;;;;3.92;2.10;;;;;;;;;;5066737;28;20035;-60
2022/06/08 09:38:14;;;;;;;4.43;1.50;;;;;;;;;;5064469;28;20032;-60
2022/06/08 09:40:51;;;;;;;5.88;1.33;;;;;;;;;;5062631;28;20036;-61
2022/06/08 09:43:39;;;;;;;4.75;1.77;;;;;;;;;;5064671;28;20032;-59
2022/06/08 09:52:41;;;;;;;4.25;1.40;;;;;;;;;;5060157;28;20112;-60
2022/06/08 09:55:09;;;;;;;3.17;1.40;;;;;;;;;;5061781;28;20108;-60
2022/06/08 09:58:03;;;;;;;3.47;1.40;;;;;;;;;;5066979;28;20103;-61
2022/06/08 10:00:46;;;;;;;4.40;1.70;;;;;;;;;;5069333;28;20028;-59
2022/06/08 10:03:31;;;;;;;4.15;1.50;;;;;;;;;;5075025;28;20028;-59
2022/06/08 10:06:06;;;;;;;3.60;1.77;;;;;;;;;;5064766;28;20028;-61
2022/06/08 10:08:53;;;;;;;4.18;1.33;;;;;;;;;;5067820;28;20484;-62
2022/06/08 10:11:46;;;;;;;6.30;1.70;;;;;;;;;;5063317;28;20062;-59
2022/06/08 10:14:21;;;;;;;3.05;1.30;;;;;;;;;;5064932;28;20028;-60
2022/06/08 10:17:17;;;;;;;5.43;1.50;;;;;;;;;;5068254;28;20111;-59
2022/06/08 10:19:55;;;;;;;4.75;1.70;;;;;;;;;;5062819;28;20037;-60
2022/06/08 10:22:23;;;;;;;3.72;1.45;;;;;;;;;;5067706;28;20133;-61
2022/06/08 10:25:07;;;;;;;3.07;1.30;;;;;;;;;;5069137;28;20036;-61
2022/06/08 10:27:47;;;;;;;3.92;2.05;;;;;;;;;;5066929;28;20032;-60
2022/06/08 10:30:15;;;;;;;4.55;1.50;;;;;;;;;;5068228;28;20031;-60
2022/06/08 10:32:49;;;;;;;6.50;1.63;;;;;;;;;;5069453;28;20047;-61
2022/06/08 10:35:31;;;;;;;7.13;1.52;;;;;;;;;;5062482;28;20044;-60
2022/06/08 10:37:59;;;;;;;3.22;1.58;;;;;;;;;;5057416;28;20028;-60
2022/06/08 10:40:36;;;;;;;4.83;1.50;;;;;;;;;;5063940;28;20021;-61
2022/06/08 10:43:03;;;;;;;6.35;1.60;;;;;;;;;;5062214;28;20056;-61
2022/06/08 10:45:43;;;;;;;4.10;1.35;;;;;;;;;;5060532;28;20033;-60
2022/06/08 10:48:14;;;;;;;3.75;1.30;;;;;;;;;;5063865;28;20028;-60
2022/06/08 10:51:03;;;;;;;6.38;1.48;;;;;;;;;;5060846;28;20024;-60
2022/06/08 10:56:26;;;;;;;4.50;1.70;;;;;;;;;;5064919;28;20059;-60
2022/06/08 10:58:57;;;;;;;2.53;1.60;;;;;;;;;;5063189;28;20036;-61
2022/06/08 11:01:49;;;;;;;6.15;1.48;;;;;;;;;;5067218;28;20486;-60
2022/06/08 11:04:27;;;;;;;3.13;1.70;;;;;;;;;;5067984;28;20042;-60
2022/06/08 11:07:28;;;;;;;5.85;1.30;;;;;;;;;;5067292;28;20029;-61
2022/06/08 11:09:57;;;;;;;4.47;1.65;;;;;;;;;;5049035;28;20123;-60
2022/06/08 11:12:34;;;;;;;5.72;1.55;;;;;;;;;;5065763;28;20046;-60
2022/06/08 11:15:13;;;;;;;4.72;1.33;;;;;;;;;;5063219;28;20496;-59
2022/06/08 11:17:45;;;;;;;;;;;;;;;;;;5071413;28;20094;-59
2022/06/08 11:20:40;;;;;;;5.22;1.70;;;;;;;;;;5067050;28;20343;-60
2022/06/08 11:23:27;;;;;;;6.07;1.50;;;;;;;;;;5065094;28;20444;-59
2022/06/08 11:26:05;;;;;;;2.55;1.30;;;;;;;;;;5070764;28;20042;-60
2022/06/08 11:28:45;;;;;;;3.42;1.45;;;;;;;;;;5069827;28;20112;-60
2022/06/08 11:31:25;;;;;;;4.75;1.50;;;;;;;;;;5068675;28;20031;-60
2022/06/08 11:34:18;;;;;;;4.90;1.60;;;;;;;;;;5063523;28;20028;-60
2022/06/08 11:36:50;;;;;;;4.90;1.70;;;;;;;;;;5064806;28;20028;-60
2022/06/08 11:39:46;;;;;;;2.97;1.30;;;;;;;;;;5072660;28;20032;-59
2022/06/08 11:42:22;;;;;;;4.78;1.45;;;;;;;;;;5063259;28;20124;-60
2022/06/08 11:44:58;;;;;;;2.55;1.40;;;;;;;;;;5072121;28;20029;-61
2022/06/08 11:47:29;;;;;;;2.88;1.45;;;;;;;;;;5070337;28;20024;-60
2022/06/08 11:50:11;;;;;;;2.72;1.13;;;;;;;;;;5064154;28;20089;-60
2022/06/08 11:52:39;;;;;;;5.18;1.30;;;;;;;;;;5065232;28;20408;-60
2022/06/08 11:55:08;;;;;;;4.30;1.40;;;;;;;;;;5071549;28;20089;-60
2022/06/08 11:57:34;;;;;;;;;;;;;;;;;;5069364;28;20058;-60
2022/06/08 12:00:01;;;;;;;3.42;1.30;;;;;;;;;;5075406;28;19934;-60
2022/06/08 12:02:35;;;;;;;4.00;1.10;;;;;;;;;;5072717;28;20067;-62
2022/06/08 12:05:01;;;;;;;9.88;1.55;;;;;;;;;;5075070;28;20376;-61
2022/06/08 12:07:43;;;;;;;4.63;1.20;;;;;;;;;;5075791;28;20107;-61
2022/06/08 12:10:21;;;;;;;4.68;1.55;;;;;;;;;;5073707;28;20127;-61
2022/06/08 12:12:48;;;;;;;5.22;1.40;;;;;;;;;;5074375;28;20025;-61
2022/06/08 12:15:32;;;;;;;4.43;1.30;;;;;;;;;;5074665;28;20043;-61
2022/06/08 12:18:27;;;;;;;2.38;1.30;;;;;;;;;;5065668;28;20066;-61
2022/06/08 12:21:21;;;;;;;1.85;1.00;;;;;;;;;;5069210;28;20040;-60
2022/06/08 12:24:11;;;;;;;4.45;1.40;;;;;;;;;;5066449;28;20456;-60
2022/06/08 12:26:42;;;;;;;6.70;2.85;;;;;;;;;;5071844;28;20036;-61
2022/06/08 12:29:13;;;;;;;3.17;1.10;;;;;;;;;;5071344;28;20055;-59
2022/06/08 12:31:39;;;;;;;2.83;1.27;;;;;;;;;;5067447;28;20103;-60
2022/06/08 12:34:43;;;;;;;1.88;1.10;;;;;;;;;;5069478;28;20040;-60
2022/06/08 12:37:30;;;;;;;2.70;1.00;;;;;;;;;;5063225;28;20021;-61
2022/06/08 12:39:59;;;;;;;2.92;1.10;;;;;;;;;;5060212;28;20184;-60
2022/06/08 12:42:33;;;;;;;1.98;1.08;;;;;;;;;;5067914;28;20436;-61
2022/06/08 12:45:00;;;;;;;5.03;1.20;;;;;;;;;;5068721;28;20028;-60
2022/06/08 12:47:31;;;;;;;3.25;1.30;;;;;;;;;;5064496;28;20403;-60
2022/06/08 12:49:57;;;;;;;2.42;1.20;;;;;;;;;;5066338;28;20484;-61
2022/06/08 12:52:26;;;;;;;3.30;1.30;;;;;;;;;;5070326;28;20098;-60
2022/06/08 12:54:52;;;;;;;4.32;1.45;;;;;;;;;;5061309;28;20035;-60
2022/06/08 12:57:24;;;;;;;5.15;2.80;;;;;;;;;;5067142;28;20116;-60
2022/06/08 12:59:57;;;;;;;3.05;1.30;;;;;;;;;;5065391;28;20090;-60
2022/06/08 13:02:28;;;;;;;2.88;1.38;;;;;;;;;;5069067;28;20035;-61
2022/06/08 13:04:54;;;;;;;2.92;1.20;;;;;;;;;;5065041;28;20025;-61
2022/06/08 13:07:25;;;;;;;3.38;1.00;;;;;;;;;;5072217;28;20039;-61
2022/06/08 13:09:51;;;;;;;4.57;1.52;;;;;;;;;;5071270;28;20032;-60
2022/06/08 13:12:22;;;;;;;4.53;1.33;;;;;;;;;;5073248;28;20518;-61
2022/06/08 13:14:48;;;;;;;5.40;1.27;;;;;;;;;;5071720;28;20028;-61
2022/06/08 13:17:14;;;;;;;4.28;1.10;;;;;;;;;;5068213;28;20028;-60
2022/06/08 13:19:40;;;;;;;3.20;1.13;;;;;;;;;;5070828;28;20025;-61
2022/06/08 13:22:06;;;;;;;2.90;1.10;;;;;;;;;;5068803;28;20020;-62
2022/06/08 13:24:32;;;;;;;3.40;1.20;;;;;;;;;;5068667;28;20087;-61
2022/06/08 13:26:58;;;;;;;3.53;1.15;;;;;;;;;;5068793;28;20465;-61
2022/06/08 13:29:23;;;;;;;2.00;1.33;;;;;;;;;;5069426;28;20040;-61
2022/06/08 13:31:49;;;;;;;3.45;1.27;;;;;;;;;;5067791;28;20077;-61
2022/06/08 13:34:16;;;;;;;2.45;1.20;;;;;;;;;;5065990;28;20024;-61
2022/06/08 13:36:55;;;;;;;2.47;1.10;;;;;;;;;;5062866;28;20040;-61
2022/06/08 13:39:29;;;;;;;3.75;1.40;;;;;;;;;;5065746;28;20028;-61
2022/06/08 13:42:21;;;;;;;1.45;1.10;;;;;;;;;;5061161;28;20488;-60
2022/06/08 13:44:52;;;;;;;3.85;1.33;;;;;;;;;;5061987;28;20526;-60
2022/06/08 13:47:23;;;;;;;7.57;1.33;;;;;;;;;;5065741;28;20031;-61
2022/06/08 13:50:10;;;;;;;5.05;1.15;;;;;;;;;;5064132;28;20098;-60
2022/06/08 13:52:37;;;;;;;3.63;1.20;;;;;;;;;;5063734;28;20507;-59
2022/06/08 13:55:08;;;;;;;1.75;1.00;;;;;;;;;;5070967;28;20111;-61
2022/06/08 13:57:33;;;;;;;3.58;1.40;;;;;;;;;;5073312;28;20028;-60
2022/06/08 14:00:00;;;;;;;5.75;1.52;;;;;;;;;;5069665;28;20090;-59
2022/06/08 14:02:51;;;;;;;2.80;1.20;;;;;;;;;;5071580;28;20107;-61
2022/06/08 14:13:51;;;;;;;5.45;1.67;;;;;;;;;;5061207;28;19919;-61
2022/06/08 14:16:17;;;;;;;2.55;1.20;;;;;;;;;;5071339;28;20114;-60
2022/06/08 14:18:46;;;;;;;5.60;2.03;;;;;;;;;;5070279;28;20038;-61
2022/06/08 14:21:13;;;;;;;5.68;1.98;;;;;;;;;;5068518;28;20544;-61
2022/06/08 14:23:41;;;;;;;3.40;1.35;;;;;;;;;;5067254;28;20044;-60
2022/06/08 14:26:08;;;;;;;2.30;1.27;;;;;;;;;;5065960;28;20040;-59
2022/06/08 14:28:34;;;;;;;3.70;1.30;;;;;;;;;;5072513;28;20029;-59
2022/06/08 14:31:01;;;;;;;2.10;1.27;;;;;;;;;;5064589;28;20040;-60
2022/06/08 14:33:31;;;;;;;2.20;1.08;;;;;;;;;;5060897;28;20044;-60
2022/06/08 14:35:57;;;;;;;4.28;1.52;;;;;;;;;;5063065;28;20086;-62
2022/06/08 14:38:26;;;;;;;4.97;1.40;;;;;;;;;;5065518;28;20028;-60
2022/06/08 14:40:51;;;;;;;6.70;3.17;;;;;;;;;;5060362;28;20028;-61
2022/06/08 14:43:18;;;;;;;4.25;2.67;;;;;;;;;;5068692;28;20318;-60
2022/06/08 14:45:44;;;;;;;4.72;1.80;;;;;;;;;;5069780;28;20028;-59
2022/06/08 14:48:17;;;;;;;4.50;1.80;;;;;;;;;;5063886;28;20077;-61
2022/06/08 14:50:47;;;;;;;4.82;1.38;;;;;;;;;;5066542;28;20394;-60
2022/06/08 14:53:14;;;;;;;4.70;1.40;;;;;;;;;;5060511;28;20029;-60
2022/06/08 14:56:41;;;;;;;3.40;1.35;;;;;;;;;;5062115;28;20048;-59
2022/06/08 14:58:37;;;;;;;5.05;1.60;;;;;;;;;;5065285;28;20036;-59
2022/06/08 15:01:04;;;;;;;2.25;1.40;;;;;;;;;;5074685;28;20017;-60
2022/06/08 15:03:30;;;;;;;4.53;1.50;;;;;;;;;;5074619;28;20025;-60
2022/06/08 15:05:56;;;;;;;4.95;1.75;;;;;;;;;;5074258;28;20551;-61
2022/06/08 15:08:22;;;;;;;7.97;2.80;;;;;;;;;;5075173;28;20395;-59
2022/06/08 15:13:39;;;;;;;2.58;1.70;;;;;;;;;;5070700;28;20478;-60
2022/06/08 15:16:05;;;;;;;8.25;1.70;;;;;;;;;;5071037;28;20032;-59
2022/06/08 15:18:32;;;;;;;4.68;1.83;;;;;;;;;;5066760;28;20035;-59
2022/06/08 15:20:59;;;;;;;6.57;2.05;;;;;;;;;;5069585;28;20056;-60
2022/06/08 15:23:26;;;;;;;6.35;1.45;;;;;;;;;;5072068;28;20394;-60
2022/06/08 15:25:54;;;;;;;5.10;1.75;;;;;;;;;;5068857;28;20032;-60
2022/06/08 15:28:24;;;;;;;5.45;1.60;;;;;;;;;;5067736;28;20113;-60
2022/06/08 15:30:50;;;;;;;5.75;1.40;;;;;;;;;;5069681;28;20119;-60
2022/06/08 15:33:19;;;;;;;6.47;1.50;;;;;;;;;;5067106;28;20170;-60
2022/06/08 15:36:00;;;;;;;3.80;1.40;;;;;;;;;;5067414;28;20055;-60